createdAt,value
2019-01-04T00:00:55.072Z,951.67
2019-01-04T00:01:55.308Z,951.7
2019-01-04T00:02:55.717Z,951.7
2019-01-04T00:03:56.403Z,951.7
2019-01-04T00:04:57.367Z,951.66
2019-01-04T00:05:58.075Z,951.73
2019-01-04T00:06:58.915Z,951.66
2019-01-04T00:07:59.639Z,951.74
2019-01-04T00:09:00.453Z,951.67
2019-01-04T00:10:01.138Z,951.72
2019-01-04T00:11:01.836Z,951.67
2019-01-04T00:12:02.517Z,951.75
2019-01-04T00:13:03.208Z,951.72
2019-01-04T00:14:03.901Z,951.71
2019-01-04T00:15:04.358Z,951.73
2019-01-04T00:16:04.771Z,951.78
2019-01-04T00:17:05.802Z,951.77
2019-01-04T00:18:06.771Z,951.77
2019-01-04T00:19:07.786Z,951.81
2019-01-04T00:20:08.027Z,951.75
2019-01-04T00:21:08.436Z,951.7
2019-01-04T00:22:09.518Z,951.73
2019-01-04T00:23:10.929Z,951.72
2019-01-04T00:24:11.614Z,951.71
2019-01-04T00:25:12.860Z,951.73
2019-01-04T00:26:13.545Z,951.69
2019-01-04T00:27:14.511Z,951.66
2019-01-04T00:28:15.230Z,951.72
2019-01-04T00:29:15.456Z,951.75
2019-01-04T00:30:15.860Z,951.75
2019-01-04T00:31:16.266Z,951.77
2019-01-04T00:32:16.955Z,951.74
2019-01-04T00:33:17.647Z,951.82
2019-01-04T00:34:18.773Z,951.75
2019-01-04T00:35:19.462Z,951.78
2019-01-04T00:36:20.144Z,951.82
2019-01-04T00:37:20.829Z,951.82
2019-01-04T00:38:21.792Z,951.86
2019-01-04T00:39:22.330Z,951.82
2019-01-04T00:40:23.016Z,951.84
2019-01-04T00:41:23.458Z,951.8
2019-01-04T00:42:23.867Z,951.76
2019-01-04T00:43:24.549Z,951.78
2019-01-04T00:44:25.073Z,951.74
2019-01-04T00:45:25.482Z,951.74
2019-01-04T00:46:25.893Z,951.73
2019-01-04T00:47:26.854Z,951.68
2019-01-04T00:48:27.822Z,951.67
2019-01-04T00:49:28.503Z,951.65
2019-01-04T00:50:29.467Z,951.68
2019-01-04T00:51:30.155Z,951.66
2019-01-04T00:52:30.840Z,951.65
2019-01-04T00:53:31.971Z,951.65
2019-01-04T00:54:32.378Z,951.72
2019-01-04T00:55:33.510Z,951.66
2019-01-04T00:56:33.919Z,951.69
2019-01-04T00:57:35.165Z,951.68
2019-01-04T00:58:35.572Z,951.61
2019-01-04T00:59:36.675Z,951.66
2019-01-04T01:00:37.082Z,951.68
2019-01-04T01:01:37.768Z,951.72
2019-01-04T01:02:38.172Z,951.7
2019-01-04T01:03:50.593Z,951.76
2019-01-04T01:04:51.136Z,951.79
2019-01-04T01:05:51.381Z,951.74
2019-01-04T01:06:52.350Z,951.75
2019-01-04T01:07:53.045Z,951.84
2019-01-04T01:08:53.461Z,951.83
2019-01-04T01:09:54.595Z,951.77
2019-01-04T01:10:55.730Z,951.71
2019-01-04T01:11:56.164Z,951.75
2019-01-04T01:12:57.179Z,951.76
2019-01-04T01:13:57.595Z,951.74
2019-01-04T01:14:58.429Z,951.78
2019-01-04T01:15:59.176Z,951.74
2019-01-04T01:16:59.594Z,951.67
2019-01-04T01:18:00.010Z,951.73
2019-01-04T01:19:00.700Z,951.7
2019-01-04T01:20:01.836Z,951.73
2019-01-04T01:21:02.569Z,951.7
2019-01-04T01:22:03.985Z,951.73
2019-01-04T01:23:04.675Z,951.7
2019-01-04T01:24:05.814Z,951.69
2019-01-04T01:25:06.193Z,951.74
2019-01-04T01:26:06.884Z,951.73
2019-01-04T01:27:07.853Z,951.72
2019-01-04T01:28:08.546Z,951.74
2019-01-04T01:29:09.238Z,951.76
2019-01-04T01:30:09.656Z,951.76
2019-01-04T01:31:10.345Z,951.74
2019-01-04T01:32:11.317Z,951.74
2019-01-04T01:33:12.282Z,951.72
2019-01-04T01:34:12.699Z,951.68
2019-01-04T01:35:13.092Z,951.73
2019-01-04T01:36:13.784Z,951.73
2019-01-04T01:37:14.926Z,951.72
2019-01-04T01:38:15.334Z,951.74
2019-01-04T01:39:16.027Z,951.72
2019-01-04T01:40:18.071Z,951.71
2019-01-04T01:41:17.273Z,951.73
2019-01-04T01:42:17.716Z,951.74
2019-01-04T01:43:17.964Z,951.72
2019-01-04T01:44:19.119Z,951.74
2019-01-04T01:45:19.664Z,951.78
2019-01-04T01:46:20.631Z,951.74
2019-01-04T01:47:21.329Z,951.76
2019-01-04T01:48:22.021Z,951.71
2019-01-04T01:49:22.715Z,951.7
2019-01-04T01:50:23.129Z,951.75
2019-01-04T01:51:23.829Z,951.74
2019-01-04T01:52:24.962Z,951.72
2019-01-04T01:53:25.375Z,951.76
2019-01-04T01:54:26.347Z,951.76
2019-01-04T01:55:27.468Z,951.73
2019-01-04T01:56:28.171Z,951.74
2019-01-04T01:57:28.859Z,951.75
2019-01-04T01:58:29.575Z,951.73
2019-01-04T01:59:30.270Z,951.66
2019-01-04T02:00:31.410Z,951.68
2019-01-04T02:01:31.823Z,951.72
2019-01-04T02:02:32.513Z,951.72
2019-01-04T02:03:33.210Z,951.73
2019-01-04T02:04:33.919Z,951.73
2019-01-04T02:05:34.743Z,951.73
2019-01-04T02:06:35.157Z,951.71
2019-01-04T02:07:36.289Z,951.74
2019-01-04T02:08:36.704Z,951.75
2019-01-04T02:09:37.683Z,951.74
2019-01-04T02:10:38.098Z,951.76
2019-01-04T02:11:39.064Z,951.76
2019-01-04T02:12:40.034Z,951.78
2019-01-04T02:13:40.731Z,951.78
2019-01-04T02:14:41.424Z,951.79
2019-01-04T02:15:42.259Z,951.8
2019-01-04T02:16:42.676Z,951.79
2019-01-04T02:17:42.921Z,951.81
2019-01-04T02:18:43.336Z,951.79
2019-01-04T02:19:44.587Z,951.82
2019-01-04T02:20:45.281Z,951.8
2019-01-04T02:21:46.254Z,951.83
2019-01-04T02:22:46.667Z,951.87
2019-01-04T02:23:47.365Z,951.86
2019-01-04T02:24:48.330Z,951.91
2019-01-04T02:25:48.737Z,951.92
2019-01-04T02:26:49.879Z,951.94
2019-01-04T02:27:50.295Z,951.88
2019-01-04T02:28:51.008Z,951.88
2019-01-04T02:29:52.142Z,951.92
2019-01-04T02:30:53.389Z,951.88
2019-01-04T02:31:54.088Z,951.89
2019-01-04T02:32:54.893Z,951.89
2019-01-04T02:33:56.139Z,951.91
2019-01-04T02:34:56.550Z,951.9
2019-01-04T02:35:57.514Z,951.93
2019-01-04T02:36:57.936Z,951.96
2019-01-04T02:37:58.460Z,951.94
2019-01-04T02:38:58.720Z,951.93
2019-01-04T02:39:59.179Z,951.92
2019-01-04T02:40:59.756Z,951.94
2019-01-04T02:42:01.023Z,951.93
2019-01-04T02:43:01.762Z,951.91
2019-01-04T02:44:03.013Z,951.92
2019-01-04T02:45:03.741Z,951.92
2019-01-04T02:46:04.580Z,951.91
2019-01-04T02:47:05.362Z,951.95
2019-01-04T02:48:06.055Z,951.93
2019-01-04T02:49:07.031Z,952
2019-01-04T02:50:08.011Z,951.96
2019-01-04T02:51:08.431Z,951.99
2019-01-04T02:52:09.413Z,951.96
2019-01-04T02:53:09.828Z,951.94
2019-01-04T02:54:10.795Z,951.94
2019-01-04T02:55:12.049Z,951.91
2019-01-04T02:56:12.987Z,951.87
2019-01-04T02:57:13.682Z,951.87
2019-01-04T02:58:13.927Z,951.93
2019-01-04T02:59:14.664Z,951.9
2019-01-04T03:00:15.372Z,951.88
2019-01-04T03:01:16.175Z,951.88
2019-01-04T03:02:16.434Z,951.9
2019-01-04T03:03:16.976Z,951.91
2019-01-04T03:04:17.948Z,951.91
2019-01-04T03:05:18.916Z,951.89
2019-01-04T03:06:19.144Z,951.81
2019-01-04T03:07:20.119Z,951.82
2019-01-04T03:08:20.583Z,951.79
2019-01-04T03:09:21.455Z,951.82
2019-01-04T03:10:21.709Z,951.8
2019-01-04T03:11:21.956Z,951.78
2019-01-04T03:12:22.650Z,951.73
2019-01-04T03:13:23.621Z,951.75
2019-01-04T03:14:24.168Z,951.78
2019-01-04T03:15:24.992Z,951.79
2019-01-04T03:16:26.190Z,951.74
2019-01-04T03:17:26.884Z,951.7
2019-01-04T03:18:27.854Z,951.69
2019-01-04T03:19:29.104Z,951.68
2019-01-04T03:20:29.921Z,951.65
2019-01-04T03:21:30.634Z,951.65
2019-01-04T03:22:30.899Z,951.62
2019-01-04T03:23:31.144Z,951.67
2019-01-04T03:24:32.292Z,951.56
2019-01-04T03:25:33.000Z,951.56
2019-01-04T03:26:33.559Z,951.58
2019-01-04T03:27:34.532Z,951.6
2019-01-04T03:28:35.053Z,951.59
2019-01-04T03:29:35.743Z,951.53
2019-01-04T03:30:37.164Z,951.53
2019-01-04T03:31:38.303Z,951.5
2019-01-04T03:32:39.409Z,951.47
2019-01-04T03:33:40.096Z,951.47
2019-01-04T03:34:40.351Z,951.51
2019-01-04T03:35:40.896Z,951.54
2019-01-04T03:36:42.018Z,951.53
2019-01-04T03:37:42.271Z,951.52
2019-01-04T03:38:43.251Z,951.46
2019-01-04T03:39:43.968Z,951.51
2019-01-04T03:40:44.224Z,951.5
2019-01-04T03:41:45.196Z,951.51
2019-01-04T03:42:46.320Z,951.53
2019-01-04T03:43:47.283Z,951.5
2019-01-04T03:44:47.982Z,951.53
2019-01-04T03:45:48.952Z,951.55
2019-01-04T03:46:49.654Z,951.49
2019-01-04T03:47:50.070Z,951.51
2019-01-04T03:48:50.761Z,951.54
2019-01-04T03:49:51.454Z,951.49
2019-01-04T03:50:52.170Z,951.5
2019-01-04T03:51:53.193Z,951.5
2019-01-04T03:52:54.168Z,951.51
2019-01-04T03:53:54.979Z,951.5
2019-01-04T03:54:55.949Z,951.53
2019-01-04T03:55:56.222Z,951.47
2019-01-04T03:56:57.058Z,951.48
2019-01-04T03:57:57.750Z,951.5
2019-01-04T03:58:57.928Z,951.48
2019-01-04T03:59:58.671Z,951.53
2019-01-04T04:00:59.177Z,951.54
2019-01-04T04:01:59.916Z,951.57
2019-01-04T04:03:01.163Z,951.57
2019-01-04T04:04:01.577Z,951.56
2019-01-04T04:05:02.134Z,951.59
2019-01-04T04:06:03.116Z,951.61
2019-01-04T04:07:04.527Z,951.59
2019-01-04T04:08:05.508Z,951.57
2019-01-04T04:09:05.759Z,951.56
2019-01-04T04:10:06.177Z,951.57
2019-01-04T04:11:06.869Z,951.59
2019-01-04T04:12:07.571Z,951.63
2019-01-04T04:13:08.279Z,951.65
2019-01-04T04:14:09.535Z,951.57
2019-01-04T04:15:10.236Z,951.55
2019-01-04T04:16:10.480Z,951.59
2019-01-04T04:17:11.094Z,951.53
2019-01-04T04:18:11.783Z,951.58
2019-01-04T04:19:12.245Z,951.53
2019-01-04T04:20:12.950Z,951.49
2019-01-04T04:21:13.473Z,951.53
2019-01-04T04:22:14.171Z,951.51
2019-01-04T04:23:14.711Z,951.54
2019-01-04T04:24:15.130Z,951.62
2019-01-04T04:25:15.596Z,951.62
2019-01-04T04:26:16.418Z,951.66
2019-01-04T04:27:17.520Z,951.7
2019-01-04T04:28:18.208Z,951.67
2019-01-04T04:29:18.762Z,951.7
2019-01-04T04:30:19.750Z,951.69
2019-01-04T04:31:20.726Z,951.66
2019-01-04T04:32:21.698Z,951.71
2019-01-04T04:33:22.454Z,951.73
2019-01-04T04:34:23.433Z,951.76
2019-01-04T04:35:23.958Z,951.77
2019-01-04T04:36:24.499Z,951.76
2019-01-04T04:37:25.332Z,951.86
2019-01-04T04:38:26.033Z,951.8
2019-01-04T04:39:26.735Z,951.84
2019-01-04T04:40:27.987Z,951.8
2019-01-04T04:41:29.392Z,951.79
2019-01-04T04:42:29.832Z,951.79
2019-01-04T04:43:30.526Z,951.81
2019-01-04T04:44:31.497Z,951.86
2019-01-04T04:45:32.465Z,951.84
2019-01-04T04:46:33.439Z,951.85
2019-01-04T04:47:33.991Z,951.89
2019-01-04T04:48:35.246Z,951.86
2019-01-04T04:49:35.938Z,951.9
2019-01-04T04:50:36.903Z,951.93
2019-01-04T04:51:37.428Z,951.96
2019-01-04T04:52:38.674Z,951.94
2019-01-04T04:53:39.641Z,951.93
2019-01-04T04:54:40.782Z,951.96
2019-01-04T04:55:41.560Z,951.89
2019-01-04T04:56:42.291Z,951.92
2019-01-04T04:57:42.566Z,951.96
2019-01-04T04:58:43.580Z,951.92
2019-01-04T04:59:44.548Z,951.91
2019-01-04T05:00:45.802Z,951.91
2019-01-04T05:01:46.505Z,951.87
2019-01-04T05:02:47.197Z,951.94
2019-01-04T05:03:48.456Z,951.93
2019-01-04T05:04:48.909Z,951.91
2019-01-04T05:05:49.902Z,951.87
2019-01-04T05:06:50.895Z,951.84
2019-01-04T05:07:51.632Z,951.87
2019-01-04T05:08:52.625Z,951.92
2019-01-04T05:09:53.757Z,951.91
2019-01-04T05:10:54.737Z,951.87
2019-01-04T05:11:55.438Z,951.91
2019-01-04T05:12:56.135Z,951.92
2019-01-04T05:13:57.266Z,951.92
2019-01-04T05:14:57.679Z,951.91
2019-01-04T05:15:58.412Z,951.9
2019-01-04T05:16:59.118Z,951.89
2019-01-04T05:18:00.222Z,951.97
2019-01-04T05:19:01.193Z,951.94
2019-01-04T05:20:01.754Z,951.94
2019-01-04T05:21:02.502Z,951.97
2019-01-04T05:22:03.475Z,951.99
2019-01-04T05:23:03.945Z,951.92
2019-01-04T05:24:04.783Z,951.91
2019-01-04T05:25:05.777Z,951.89
2019-01-04T05:26:06.746Z,951.89
2019-01-04T05:27:07.717Z,951.88
2019-01-04T05:28:08.543Z,951.82
2019-01-04T05:29:09.579Z,951.82
2019-01-04T05:30:10.272Z,951.87
2019-01-04T05:31:10.700Z,951.87
2019-01-04T05:32:11.242Z,951.91
2019-01-04T05:33:12.504Z,951.89
2019-01-04T05:34:13.203Z,951.88
2019-01-04T05:35:14.453Z,951.88
2019-01-04T05:36:15.185Z,951.88
2019-01-04T05:37:15.872Z,951.86
2019-01-04T05:38:16.594Z,951.93
2019-01-04T05:39:17.682Z,951.93
2019-01-04T05:40:17.929Z,951.94
2019-01-04T05:41:18.901Z,951.93
2019-01-04T05:42:19.873Z,951.95
2019-01-04T05:43:21.012Z,951.98
2019-01-04T05:44:21.701Z,951.97
2019-01-04T05:45:22.414Z,951.96
2019-01-04T05:46:23.108Z,951.98
2019-01-04T05:47:23.519Z,951.97
2019-01-04T05:48:23.912Z,951.97
2019-01-04T05:49:24.167Z,951.96
2019-01-04T05:50:24.576Z,951.98
2019-01-04T05:51:25.269Z,951.99
2019-01-04T05:52:25.787Z,951.96
2019-01-04T05:53:26.758Z,951.94
2019-01-04T05:54:27.726Z,951.89
2019-01-04T05:55:28.417Z,951.85
2019-01-04T05:56:29.408Z,951.89
2019-01-04T05:57:30.108Z,951.88
2019-01-04T05:58:30.800Z,951.89
2019-01-04T05:59:31.492Z,951.83
2019-01-04T06:00:31.908Z,951.9
2019-01-04T06:01:32.876Z,951.87
2019-01-04T06:02:34.041Z,951.84
2019-01-04T06:03:35.026Z,951.8
2019-01-04T06:04:35.448Z,951.81
2019-01-04T06:05:35.861Z,951.82
2019-01-04T06:06:36.828Z,951.79
2019-01-04T06:07:37.517Z,951.75
2019-01-04T06:08:38.620Z,951.79
2019-01-04T06:09:39.038Z,951.79
2019-01-04T06:10:40.048Z,951.81
2019-01-04T06:11:40.739Z,951.75
2019-01-04T06:12:41.193Z,951.8
2019-01-04T06:13:41.923Z,951.74
2019-01-04T06:14:42.169Z,951.76
2019-01-04T06:15:42.860Z,951.72
2019-01-04T06:16:43.828Z,951.79
2019-01-04T06:17:44.525Z,951.79
2019-01-04T06:18:45.477Z,951.76
2019-01-04T06:19:46.165Z,951.78
2019-01-04T06:20:46.582Z,951.81
2019-01-04T06:21:47.273Z,951.83
2019-01-04T06:22:47.691Z,951.89
2019-01-04T06:23:48.104Z,951.83
2019-01-04T06:24:48.801Z,951.81
2019-01-04T06:25:49.943Z,951.82
2019-01-04T06:26:50.921Z,951.85
2019-01-04T06:27:52.169Z,951.86
2019-01-04T06:28:52.991Z,951.84
2019-01-04T06:29:53.684Z,951.81
2019-01-04T06:30:54.824Z,951.86
2019-01-04T06:31:55.958Z,951.84
2019-01-04T06:32:56.373Z,951.84
2019-01-04T06:33:57.344Z,951.82
2019-01-04T06:34:57.756Z,951.86
2019-01-04T06:35:58.256Z,951.87
2019-01-04T06:36:59.527Z,951.88
2019-01-04T06:38:00.509Z,951.86
2019-01-04T06:39:00.907Z,951.91
2019-01-04T06:40:02.045Z,951.92
2019-01-04T06:41:03.022Z,951.89
2019-01-04T06:42:04.159Z,951.9
2019-01-04T06:43:05.134Z,951.91
2019-01-04T06:44:06.267Z,951.92
2019-01-04T06:45:06.963Z,951.94
2019-01-04T06:46:07.520Z,951.96
2019-01-04T06:47:08.211Z,951.93
2019-01-04T06:48:08.904Z,951.95
2019-01-04T06:49:09.453Z,951.98
2019-01-04T06:50:10.587Z,951.93
2019-01-04T06:51:11.280Z,952.02
2019-01-04T06:52:12.416Z,952
2019-01-04T06:53:12.828Z,951.98
2019-01-04T06:54:13.075Z,951.96
2019-01-04T06:55:13.489Z,951.95
2019-01-04T06:56:13.903Z,951.99
2019-01-04T06:57:14.629Z,951.97
2019-01-04T06:58:16.039Z,951.92
2019-01-04T06:59:16.609Z,951.93
2019-01-04T07:00:17.574Z,951.92
2019-01-04T07:01:18.550Z,951.92
2019-01-04T07:02:19.687Z,951.9
2019-01-04T07:03:20.822Z,951.92
2019-01-04T07:04:21.519Z,951.94
2019-01-04T07:05:22.757Z,951.99
2019-01-04T07:06:23.210Z,952.01
2019-01-04T07:07:23.625Z,951.97
2019-01-04T07:08:24.041Z,951.98
2019-01-04T07:09:24.894Z,952
2019-01-04T07:10:25.308Z,951.99
2019-01-04T07:11:26.278Z,952.06
2019-01-04T07:12:27.425Z,952.07
2019-01-04T07:13:28.114Z,952.08
2019-01-04T07:14:28.532Z,952.11
2019-01-04T07:15:29.504Z,952.1
2019-01-04T07:16:30.758Z,952.11
2019-01-04T07:17:31.452Z,952.11
2019-01-04T07:18:32.422Z,952.11
2019-01-04T07:19:32.828Z,952.14
2019-01-04T07:20:33.800Z,952.12
2019-01-04T07:21:34.218Z,952.15
2019-01-04T07:22:35.193Z,952.12
2019-01-04T07:23:35.894Z,952.16
2019-01-04T07:24:37.436Z,952.12
2019-01-04T07:25:37.941Z,952.1
2019-01-04T07:26:38.681Z,952.12
2019-01-04T07:27:39.098Z,952.19
2019-01-04T07:28:40.516Z,952.22
2019-01-04T07:29:41.066Z,952.2
2019-01-04T07:30:41.484Z,952.2
2019-01-04T07:31:42.213Z,952.21
2019-01-04T07:32:43.362Z,952.17
2019-01-04T07:33:44.332Z,952.19
2019-01-04T07:34:45.755Z,952.21
2019-01-04T07:35:46.173Z,952.22
2019-01-04T07:36:47.311Z,952.22
2019-01-04T07:37:48.293Z,952.23
2019-01-04T07:38:48.985Z,952.22
2019-01-04T07:39:50.089Z,952.26
2019-01-04T07:40:50.915Z,952.34
2019-01-04T07:41:51.619Z,952.35
2019-01-04T07:42:52.312Z,952.33
2019-01-04T07:43:53.451Z,952.29
2019-01-04T07:44:53.628Z,952.37
2019-01-04T07:45:54.769Z,952.35
2019-01-04T07:46:55.201Z,952.37
2019-01-04T07:47:56.342Z,952.42
2019-01-04T07:48:57.484Z,952.49
2019-01-04T07:49:58.309Z,952.47
2019-01-04T07:50:59.316Z,952.48
2019-01-04T07:51:59.735Z,952.52
2019-01-04T07:53:00.153Z,952.51
2019-01-04T07:54:00.847Z,952.52
2019-01-04T07:55:01.263Z,952.58
2019-01-04T07:56:01.682Z,952.61
2019-01-04T07:57:02.413Z,952.6
2019-01-04T07:58:02.833Z,952.59
2019-01-04T07:59:03.523Z,952.62
2019-01-04T08:00:04.372Z,952.62
2019-01-04T08:01:05.622Z,952.59
2019-01-04T08:02:06.036Z,952.62
2019-01-04T08:03:06.289Z,952.61
2019-01-04T08:04:07.425Z,952.6
2019-01-04T08:05:08.119Z,952.63
2019-01-04T08:06:09.381Z,952.67
2019-01-04T08:07:10.345Z,952.65
2019-01-04T08:08:10.764Z,952.71
2019-01-04T08:09:11.460Z,952.67
2019-01-04T08:10:12.579Z,952.69
2019-01-04T08:11:13.035Z,952.73
2019-01-04T08:12:13.449Z,952.71
2019-01-04T08:13:13.866Z,952.72
2019-01-04T08:14:14.334Z,952.74
2019-01-04T08:15:15.448Z,952.76
2019-01-04T08:16:16.432Z,952.74
2019-01-04T08:17:16.843Z,952.79
2019-01-04T08:18:17.816Z,952.83
2019-01-04T08:19:18.239Z,952.84
2019-01-04T08:20:18.792Z,952.84
2019-01-04T08:21:19.930Z,952.86
2019-01-04T08:22:21.073Z,952.86
2019-01-04T08:23:22.049Z,952.83
2019-01-04T08:24:23.022Z,952.82
2019-01-04T08:25:23.725Z,952.84
2019-01-04T08:26:24.864Z,952.79
2019-01-04T08:27:26.006Z,952.82
2019-01-04T08:28:26.425Z,952.83
2019-01-04T08:29:26.675Z,952.79
2019-01-04T08:30:27.847Z,952.81
2019-01-04T08:31:28.309Z,952.76
2019-01-04T08:32:29.217Z,952.8
2019-01-04T08:33:30.189Z,952.79
2019-01-04T08:34:30.606Z,952.79
2019-01-04T08:35:31.307Z,952.82
2019-01-04T08:36:32.451Z,952.79
2019-01-04T08:37:33.423Z,952.87
2019-01-04T08:38:34.849Z,952.81
2019-01-04T08:39:35.556Z,952.86
2019-01-04T08:40:36.663Z,952.88
2019-01-04T08:41:37.357Z,952.85
2019-01-04T08:42:38.055Z,952.83
2019-01-04T08:43:39.035Z,952.81
2019-01-04T08:44:39.729Z,952.88
2019-01-04T08:45:40.152Z,952.87
2019-01-04T08:46:40.850Z,952.88
2019-01-04T08:47:41.546Z,952.89
2019-01-04T08:48:41.798Z,952.91
2019-01-04T08:48:53.853Z,952.9
2019-01-04T08:49:54.799Z,952.91
2019-01-04T08:50:55.494Z,952.93
2019-01-04T08:51:56.745Z,952.9
2019-01-04T08:52:57.717Z,952.96
2019-01-04T08:53:58.412Z,952.94
2019-01-04T08:54:58.831Z,953
2019-01-04T08:55:59.574Z,952.98
2019-01-04T08:57:00.544Z,953.02
2019-01-04T08:58:01.963Z,952.94
2019-01-04T08:59:02.935Z,952.95
2019-01-04T09:00:03.549Z,953
2019-01-04T09:01:04.009Z,953.05
2019-01-04T09:02:04.984Z,953.01
2019-01-04T09:03:06.121Z,953.03
2019-01-04T09:04:06.814Z,953
2019-01-04T09:05:07.233Z,953.03
2019-01-04T09:06:07.651Z,953.02
2019-01-04T09:07:08.179Z,953.08
2019-01-04T09:08:09.157Z,953.08
2019-01-04T09:09:09.588Z,953
2019-01-04T09:10:09.967Z,952.98
2019-01-04T09:11:10.682Z,952.99
2019-01-04T09:12:11.824Z,952.98
2019-01-04T09:13:14.160Z,953.05
2019-01-04T09:14:15.038Z,953.01
2019-01-04T09:15:15.811Z,952.97
2019-01-04T09:16:16.655Z,952.98
2019-01-04T09:17:17.792Z,953.03
2019-01-04T09:18:18.934Z,953.04
2019-01-04T09:19:19.353Z,953.11
2019-01-04T09:20:20.520Z,953.06
2019-01-04T09:21:21.245Z,953.03
2019-01-04T09:22:22.220Z,953.02
2019-01-04T09:23:22.956Z,953.06
2019-01-04T09:24:23.376Z,953.09
2019-01-04T09:25:23.809Z,953.13
2019-01-04T09:26:24.785Z,953.12
2019-01-04T09:27:25.208Z,953.16
2019-01-04T09:28:25.632Z,953.21
2019-01-04T09:29:25.870Z,953.28
2019-01-04T09:30:26.932Z,953.3
2019-01-04T09:31:27.346Z,953.36
2019-01-04T09:32:28.049Z,953.3
2019-01-04T09:33:28.466Z,953.25
2019-01-04T09:34:29.639Z,953.29
2019-01-04T09:35:30.336Z,953.25
2019-01-04T09:36:31.481Z,953.29
2019-01-04T09:37:31.906Z,953.31
2019-01-04T09:38:32.337Z,953.37
2019-01-04T09:39:32.761Z,953.35
2019-01-04T09:40:33.871Z,953.33
2019-01-04T09:41:34.442Z,953.38
2019-01-04T09:42:34.942Z,953.37
2019-01-04T09:43:35.644Z,953.35
2019-01-04T09:44:36.627Z,953.29
2019-01-04T09:45:37.039Z,953.35
2019-01-04T09:46:38.182Z,953.38
2019-01-04T09:47:38.608Z,953.41
2019-01-04T09:48:38.861Z,953.44
2019-01-04T09:49:39.553Z,953.43
2019-01-04T09:50:40.230Z,953.35
2019-01-04T09:51:42.191Z,953.33
2019-01-04T09:52:43.328Z,953.39
2019-01-04T09:53:44.220Z,953.37
2019-01-04T09:54:44.758Z,953.38
2019-01-04T09:55:47.500Z,953.4
2019-01-04T09:56:48.914Z,953.36
2019-01-04T09:57:49.174Z,953.37
2019-01-04T09:58:49.901Z,953.42
2019-01-04T09:59:50.152Z,953.37
2019-01-04T10:00:52.522Z,953.32
2019-01-04T10:01:03.377Z,953.31
2019-01-04T10:02:05.087Z,953.32
2019-01-04T10:02:16.845Z,953.34
2019-01-04T10:02:30.778Z,953.3
2019-01-04T10:02:44.044Z,953.29
2019-01-04T10:02:55.772Z,953.27
2019-01-04T10:03:56.661Z,953.28
2019-01-04T10:04:56.915Z,953.23
2019-01-04T10:05:57.334Z,953.23
2019-01-04T10:06:58.309Z,953.27
2019-01-04T10:07:59.284Z,953.25
2019-01-04T10:08:59.863Z,953.22
2019-01-04T10:10:00.666Z,953.2
2019-01-04T10:11:01.105Z,953.19
2019-01-04T10:12:03.310Z,953.19
2019-01-04T10:12:15.829Z,953.19
2019-01-04T10:13:16.948Z,953.21
2019-01-04T10:14:18.366Z,953.22
2019-01-04T10:15:19.350Z,953.17
2019-01-04T10:16:21.292Z,953.16
2019-01-04T10:16:31.798Z,953.2
2019-01-04T10:17:32.623Z,953.14
2019-01-04T10:18:33.324Z,953.12
2019-01-04T10:19:34.297Z,953.11
2019-01-04T10:20:34.999Z,953.07
2019-01-04T10:21:36.260Z,953.05
2019-01-04T10:22:37.236Z,953.05
2019-01-04T10:23:37.749Z,953.04
2019-01-04T10:24:39.448Z,953.04
2019-01-04T10:25:40.421Z,953.08
2019-01-04T10:26:41.174Z,953.06
2019-01-04T10:27:41.982Z,953.01
2019-01-04T10:28:44.639Z,953.03
2019-01-04T10:29:45.262Z,953.08
2019-01-04T10:30:46.684Z,953
2019-01-04T10:31:48.646Z,952.95
2019-01-04T10:32:49.675Z,952.97
2019-01-04T10:33:51.437Z,952.94
2019-01-04T10:34:53.292Z,952.96
2019-01-04T10:35:53.313Z,952.95
2019-01-04T10:36:54.477Z,952.9
2019-01-04T10:37:56.870Z,952.84
2019-01-04T10:38:58.603Z,952.82
2019-01-04T10:39:58.934Z,952.74
2019-01-04T10:40:59.264Z,952.65
2019-01-04T10:42:00.562Z,952.64
2019-01-04T10:43:01.207Z,952.64
2019-01-04T10:44:02.083Z,952.61
2019-01-04T10:45:02.718Z,952.63
2019-01-04T10:46:03.259Z,952.62
2019-01-04T10:47:04.741Z,952.6
2019-01-04T10:48:05.806Z,952.58
2019-01-04T10:49:07.238Z,952.54
2019-01-04T10:50:07.737Z,952.59
2019-01-04T10:51:10.147Z,952.56
2019-01-04T10:52:10.405Z,952.56
2019-01-04T10:53:12.490Z,952.5
2019-01-04T10:54:13.491Z,952.45
2019-01-04T10:55:14.195Z,952.52
2019-01-04T10:56:14.612Z,952.48
2019-01-04T10:57:15.753Z,952.45
2019-01-04T10:58:15.948Z,952.42
2019-01-04T10:59:16.368Z,952.38
2019-01-04T11:00:16.787Z,952.38
2019-01-04T11:01:17.041Z,952.36
2019-01-04T11:02:17.463Z,952.33
2019-01-04T11:03:18.160Z,952.32
2019-01-04T11:04:19.417Z,952.35
2019-01-04T11:05:21.054Z,952.29
2019-01-04T11:06:21.830Z,952.23
2019-01-04T11:07:23.081Z,952.2
2019-01-04T11:08:23.666Z,952.18
2019-01-04T11:09:24.922Z,952.14
2019-01-04T11:10:26.178Z,952.1
2019-01-04T11:11:26.878Z,952.06
2019-01-04T11:12:28.027Z,952.07
2019-01-04T11:13:28.451Z,952.03
2019-01-04T11:14:28.875Z,952.03
2019-01-04T11:15:30.786Z,952.04
2019-01-04T11:16:32.309Z,951.99
2019-01-04T11:16:44.443Z,951.98
2019-01-04T11:16:58.330Z,951.96
2019-01-04T11:17:58.412Z,951.98
2019-01-04T11:19:00.691Z,951.97
2019-01-04T11:20:00.891Z,951.97
2019-01-04T11:21:01.599Z,951.95
2019-01-04T11:22:02.501Z,951.95
2019-01-04T11:23:03.143Z,951.96
2019-01-04T11:24:03.567Z,951.95
2019-01-04T11:25:03.985Z,951.92
2019-01-04T11:26:05.129Z,951.96
2019-01-04T11:27:05.552Z,951.95
2019-01-04T11:28:06.136Z,952.01
2019-01-04T11:29:06.557Z,951.94
2019-01-04T11:30:07.821Z,951.95
2019-01-04T11:31:08.515Z,951.96
2019-01-04T11:32:08.769Z,951.93
2019-01-04T11:33:09.193Z,951.98
2019-01-04T11:34:10.338Z,951.93
2019-01-04T11:35:11.316Z,951.91
2019-01-04T11:36:12.461Z,951.92
2019-01-04T11:37:12.884Z,951.88
2019-01-04T11:38:13.718Z,951.85
2019-01-04T11:39:13.967Z,951.81
2019-01-04T11:40:14.386Z,951.77
2019-01-04T11:41:14.806Z,951.78
2019-01-04T11:42:15.074Z,951.76
2019-01-04T11:43:15.498Z,951.73
2019-01-04T11:44:16.200Z,951.67
2019-01-04T11:45:16.896Z,951.61
2019-01-04T11:46:17.872Z,951.65
2019-01-04T11:47:20.723Z,951.65
2019-01-04T11:48:21.118Z,951.62
2019-01-04T11:49:21.541Z,951.54
2019-01-04T11:50:22.237Z,951.52
2019-01-04T11:51:22.662Z,951.55
2019-01-04T11:52:23.636Z,951.52
2019-01-04T11:52:35.669Z,951.49
2019-01-04T11:53:36.084Z,951.54
2019-01-04T11:54:36.504Z,951.52
2019-01-04T11:55:37.351Z,951.53
2019-01-04T11:56:37.770Z,951.53
2019-01-04T11:57:38.190Z,951.51
2019-01-04T11:58:38.943Z,951.49
2019-01-04T11:59:39.949Z,951.52
2019-01-04T12:00:40.650Z,951.51
2019-01-04T12:01:41.625Z,951.5
2019-01-04T12:02:42.325Z,951.5
2019-01-04T12:03:43.239Z,951.49
2019-01-04T12:04:44.381Z,951.48
2019-01-04T12:05:44.805Z,951.42
2019-01-04T12:06:45.272Z,951.44
2019-01-04T12:07:45.963Z,951.43
2019-01-04T12:08:46.660Z,951.44
2019-01-04T12:09:47.086Z,951.47
2019-01-04T12:10:47.782Z,951.43
2019-01-04T12:11:48.924Z,951.45
2019-01-04T12:12:51.313Z,951.49
2019-01-04T12:13:50.804Z,951.49
2019-01-04T12:14:05.198Z,951.48
2019-01-04T12:15:05.102Z,951.43
2019-01-04T12:16:06.246Z,951.45
2019-01-04T12:17:07.674Z,951.41
2019-01-04T12:18:08.442Z,951.4
2019-01-04T12:19:09.137Z,951.36
2019-01-04T12:20:10.110Z,951.3
2019-01-04T12:21:10.845Z,951.27
2019-01-04T12:22:11.681Z,951.27
2019-01-04T12:23:11.967Z,951.28
2019-01-04T12:24:12.387Z,951.28
2019-01-04T12:25:13.199Z,951.27
2019-01-04T12:26:13.894Z,951.27
2019-01-04T12:27:14.316Z,951.26
2019-01-04T12:28:16.141Z,951.23
2019-01-04T12:28:28.267Z,951.22
2019-01-04T12:28:40.648Z,951.22
2019-01-04T12:28:52.623Z,951.24
2019-01-04T12:29:06.371Z,951.23